• Join FlightAware (Why Join?)
  • Login
  • US Flag 
09:54AM EDT


 

Airport Tracker/Info


-or-


 

Live Flight TrackerFlight Track Log ✈ DAL6115 ✈ 11-Apr-2013 ✈ KJFK - KROC

Flight Track Log - Related Links

Times and Time Zones

All times are in EDT time to prevent confusion due to time zone crossing. See the DAL6115 flight status page for this flight to view local times or setup timezone preferences in your user account.

Time Position Orientation Groundspeed Altitude Reporting Facility
EDT Latitude Longitude Course Direction KTS MPH feet Rate Location/Type
09:53AM 40.6500 -73.7333 75° East 176 203 1,800  Level New York TRACON
09:54AM 40.6667 -73.6500 75° East 251 289 2,900 1,500 Climbing New York TRACON
09:55AM 40.7167 -73.5833 45° Northeast 285 328 4,900 2,220 Climbing New York TRACON
09:56AM 40.7667 -73.4833 57° Northeast 305 351 7,400 2,400 Climbing New York TRACON
09:57AM 40.8333 -73.4833 360° North 274 315 9,800 1,980 Climbing New York TRACON
09:58AM 40.9000 -73.5167 339° North 275 316 11,400 1,500 Climbing New York TRACON
09:59AM 40.9333 -73.6000 298° West 271 312 12,800 1,440 Climbing New York TRACON
10:00AM 40.9667 -73.6833 298° West 284 327 14,200 1,560 Climbing New York TRACON
10:01AM 41.0000 -73.8000 291° West 292 336 16,000 1,200 Climbing New York TRACON
10:04AM 41.0683 -74.0433 290° West 317 365 18,600 1,080 Climbing New York Center
10:05AM 41.1028 -74.1525 293° West 317 365 19,900 1,380 Climbing New York Center
10:06AM 41.1367 -74.2725 291° West 312 359 21,500 1,020 Climbing New York Center
10:07AM 41.1708 -74.3872 292° West 324 373 22,000 240 Climbing New York Center
10:08AM 41.2106 -74.5164 292° West 349 402 22,000  Level New York Center
10:09AM 41.2628 -74.6353 300° West 365 420 22,000  Level New York Center
10:10AM 41.3239 -74.7436 307° West 386 444 22,000  Level New York Center
10:11AM 41.3950 -74.8556 310° West 396 456 22,000  Level New York Center
10:12AM 41.4633 -74.9872 305° West 396 456 22,000  Level New York Center
10:13AM 41.5258 -75.1019 306° West 396 456 22,000  Level New York Center
10:14AM 41.5881 -75.2169 306° West 396 456 22,000  Level New York Center
10:15AM 41.6525 -75.3322 307° West 391 450 22,000  Level New York Center
10:16AM 41.7147 -75.4475 306° West 391 450 22,000  Level New York Center
10:17AM 41.7767 -75.5633 306° West 391 450 22,000  Level New York Center
10:18AM 41.8383 -75.6817 305° West 391 450 22,000  Level New York Center
10:19AM 41.9003 -75.7978 306° West 391 450 22,000  Level New York Center
10:20AM 41.9619 -75.9114 306° West 391 450 22,000  Level New York Center
10:21AM 42.0256 -76.0306 306° West 391 450 22,000  Level New York Center
10:22AM 42.0847 -76.1472 304° West 391 450 22,000  Level New York Center
10:23AM 42.1461 -76.2642 305° West 391 450 22,000  Level New York Center
10:24AM 42.2072 -76.3839 305° West 391 450 22,000 -420 Level New York Center
10:25AM 42.2758 -76.5136 306° West 389 448 21,200 -960 Descending Cleveland Center
10:26AM 42.3361 -76.6278 306° West 389 448 20,100 -1,140 Descending Cleveland Center
10:27AM 42.3919 -76.7369 305° West 373 429 19,000 -1,200 Descending Cleveland Center
10:28AM 42.4475 -76.8461 305° West 361 415 17,800 -1,020 Descending Cleveland Center
10:29AM 42.5031 -76.9525 305° West 356 410 17,000 -540 Descending Cleveland Center
10:29AM 42.5383 -77.0153 307° West 351 404 17,000 -300 Level Cleveland Center
10:30AM 42.5686 -77.0503 320° Northwest 356 410 16,700 -900 Descending Cleveland Center
10:30AM 42.6142 -77.1042 319° Northwest 364 419 16,100 -900 Descending Cleveland Center
10:31AM 42.6464 -77.1392 321° Northwest 356 410 15,800 -1,140 Descending Cleveland Center
10:31AM 42.6897 -77.1878 320° Northwest 346 398 15,000 -1,200 Descending Cleveland Center
10:32AM 42.7175 -77.2172 322° Northwest 346 398 14,600 -1,320 Descending Cleveland Center
10:32AM 42.7503 -77.2664 312° West 286 329 13,700 -1,440 Descending Cleveland Center
10:33AM 42.7656 -77.2911 310° West 314 361 13,200 -1,680 Descending Cleveland Center
10:33AM 42.7983 -77.3458 309° West 264 304 12,000 -1,500 Descending Cleveland Center
10:34AM 42.8094 -77.3681 304° West 284 327 11,700 -1,740 Descending Cleveland Center
10:34AM 42.8297 -77.4264 295° West 223 257 10,300 -2,040 Descending Cleveland Center
10:35AM 42.8406 -77.4428 312° West 251 289 9,700 -2,220 Descending Cleveland Center
10:35AM 42.8567 -77.4989 291° West 224 258 8,100 -2,220 Descending Cleveland Center
10:36AM 42.8594 -77.5214 280° West 236 272 7,500 -2,280 Descending Cleveland Center
10:36AM 42.8592 -77.5864 270° West 236 272 5,800 -2,340 Descending Cleveland Center
10:37AM 42.8597 -77.6092 272° West 226 260 5,200 -2,220 Descending Cleveland Center
10:37AM 42.8531 -77.6831 263° West 260 299 3,600 -2,040 Descending Cleveland Center
10:38AM 42.8622 -77.7053 299° West 240 276 3,200 -1,140 Descending Cleveland Center
10:38AM 42.8950 -77.7689 305° West 246 283 2,500 -720 Descending Cleveland Center
10:39AM 42.9033 -77.7772 324° Northwest 232 267 2,500  Level Cleveland Center
10:39AM 42.9439 -77.8092 330° Northwest 196 226 2,500  Level Cleveland Center
10:40AM 42.9892 -77.7847 22° Northeast 172 198 2,500 -60 Level Cleveland Center
10:41AM 43.0281 -77.7544 30° Northeast 152 175 2,400 -420 Descending Cleveland Center
10:42AM 43.0586 -77.7275 33° Northeast 118 136 1,700 -720 Descending Cleveland Center
10:43AM 43.0892 -77.7061 27° Northeast 127 146 1,000 -720 Descending Cleveland Center